This is the latest recevied weather packets stored in our database for station/object N5JXS. If no packets are shown the sender has not sent any weather packets the latest 10 day(s).
| Time | Temp. | Humidity | Pressure | Rain* | Wind** | Luminosity | Snow |
|---|---|---|---|---|---|---|---|
| 1787905685 | 16.67° C | 54% | 1030.1 hPa | 0 mm | - | 0 W/m² | - |
| 1787905382 | 16.67° C | 54% | 1029.7 hPa | 0 mm | - | 0 W/m² | - |
| 1787905076 | 16.67° C | 56% | 1030 hPa | 0 mm | - | 0 W/m² | - |
| 1787904772 | 16.67° C | 54% | 1030.2 hPa | 0 mm | - | 0 W/m² | - |
| 1787904468 | 16.11° C | 57% | 1030.1 hPa | 0 mm | - | 0 W/m² | - |
| 1787904167 | 15.56° C | 59% | 1030.3 hPa | 0 mm | - | 0 W/m² | - |
| 1787903862 | 15.56° C | 61% | 1030.2 hPa | 0 mm | - | 0 W/m² | - |
| 1787903559 | 15.56° C | 60% | 1030 hPa | 0 mm | - | 0 W/m² | - |
| 1787903253 | 16.11° C | 60% | 1030.1 hPa | 0 mm | - | 0 W/m² | - |
| 1787902950 | 16.11° C | 60% | 1029.7 hPa | 0 mm | - | 0 W/m² | - |
| 1787902646 | 16.11° C | 59% | 1030.1 hPa | 0 mm | - | 0 W/m² | - |
| 1787902341 | 16.11° C | 60% | 1030.1 hPa | 0 mm | - | 0 W/m² | - |
| 1787902037 | 16.67° C | 59% | 1030.3 hPa | 0 mm | - | 0 W/m² | - |
| 1787901732 | 16.67° C | 59% | 1030.3 hPa | 0 mm | - | 0 W/m² | - |
| 1787901427 | 16.67° C | 58% | 1030.5 hPa | 0 mm | - | 0 W/m² | - |
| 1787901123 | 16.67° C | 57% | 1030.5 hPa | 0 mm | - | 0 W/m² | - |
| 1787900823 | 16.67° C | 58% | 1030.6 hPa | 0 mm | - | 0 W/m² | - |
| 1787900526 | 17.22° C | 57% | 1030.2 hPa | 0 mm | - | 0 W/m² | - |
| 1787900218 | 17.22° C | 55% | 1030.5 hPa | 0 mm | - | 0 W/m² | - |
| 1787899912 | 17.22° C | 56% | 1030.2 hPa | 0 mm | - | 0 W/m² | - |
| 1787899608 | 17.22° C | 56% | 1030.3 hPa | 0 mm | - | 0 W/m² | - |
| 1787899304 | 17.22° C | 56% | 1030.5 hPa | 0 mm | - | 0 W/m² | - |
| 1787898999 | 17.22° C | 57% | 1030.5 hPa | 0 mm | - | 0 W/m² | - |
| 1787898694 | 17.22° C | 57% | 1030.2 hPa | 0 mm | - | 0 W/m² | - |
| 1787898393 | 17.22° C | 57% | 1030.2 hPa | 0 mm | - | 0 W/m² | - |
* Rain latest hour (hover to see other rain measurements)
** Current wind speed in m/s (hover to see current wind gust speed)